createdAt,value
2022-12-23T00:00:00.457Z,7.90
2022-12-23T00:01:02.079Z,7.90
2022-12-23T00:02:00.664Z,7.90
2022-12-23T00:03:00.713Z,7.90
2022-12-23T00:04:00.575Z,7.90
2022-12-23T00:05:00.486Z,7.90
2022-12-23T00:06:00.493Z,7.90
2022-12-23T00:07:00.468Z,7.90
2022-12-23T00:08:00.461Z,7.90
2022-12-23T00:09:00.477Z,7.90
2022-12-23T00:10:00.499Z,7.90
2022-12-23T00:11:00.516Z,7.90
2022-12-23T00:12:00.492Z,7.90
2022-12-23T00:13:00.468Z,7.90
2022-12-23T00:14:00.451Z,7.90
2022-12-23T00:15:00.450Z,7.90
2022-12-23T00:16:02.693Z,7.90
2022-12-23T00:17:00.497Z,7.90
2022-12-23T00:18:00.448Z,7.90
2022-12-23T00:19:00.458Z,7.90
2022-12-23T00:20:00.962Z,7.90
2022-12-23T00:21:08.111Z,7.90
2022-12-23T00:22:00.468Z,7.90
2022-12-23T00:23:00.581Z,7.90
2022-12-23T00:24:00.528Z,7.90
2022-12-23T00:25:00.455Z,11.60
2022-12-23T00:26:00.499Z,11.60
2022-12-23T00:27:00.448Z,11.60
2022-12-23T00:28:00.457Z,11.60
2022-12-23T00:29:00.486Z,11.60
2022-12-23T00:30:00.502Z,11.60
2022-12-23T00:31:02.976Z,11.60
2022-12-23T00:32:00.607Z,11.60
2022-12-23T00:33:00.488Z,11.60
2022-12-23T00:34:00.442Z,11.60
2022-12-23T00:35:00.494Z,11.60
2022-12-23T00:36:00.821Z,11.60
2022-12-23T00:37:00.476Z,11.60
2022-12-23T00:38:00.487Z,11.60
2022-12-23T00:39:00.452Z,11.60
2022-12-23T00:40:06.222Z,11.60
2022-12-23T00:41:00.477Z,11.60
2022-12-23T00:42:00.477Z,11.60
2022-12-23T00:43:00.461Z,11.60
2022-12-23T00:44:01.225Z,11.60
2022-12-23T00:45:00.456Z,11.60
2022-12-23T00:46:00.481Z,11.60
2022-12-23T00:47:00.451Z,11.60
2022-12-23T00:48:00.469Z,11.60
2022-12-23T00:49:00.481Z,11.60
2022-12-23T00:50:00.448Z,11.60
2022-12-23T00:51:00.467Z,11.60
2022-12-23T00:52:01.087Z,11.60
2022-12-23T00:53:00.538Z,11.60
2022-12-23T00:54:00.660Z,11.60
2022-12-23T00:55:00.454Z,10.00
2022-12-23T00:56:00.453Z,10.00
2022-12-23T00:57:00.481Z,10.00
2022-12-23T00:58:00.464Z,10.00
2022-12-23T00:59:00.717Z,10.00
2022-12-23T01:00:00.576Z,10.00
2022-12-23T01:01:00.550Z,10.00
2022-12-23T01:02:00.814Z,10.00
2022-12-23T01:03:00.624Z,10.00
2022-12-23T01:04:01.209Z,10.00
2022-12-23T01:05:00.446Z,10.00
2022-12-23T01:06:00.901Z,10.00
2022-12-23T01:07:00.743Z,10.00
2022-12-23T01:08:00.487Z,10.00
2022-12-23T01:09:00.581Z,10.00
2022-12-23T01:10:00.469Z,10.00
2022-12-23T01:11:02.460Z,10.00
2022-12-23T01:12:00.807Z,10.00
2022-12-23T01:13:00.491Z,10.00
2022-12-23T01:14:00.565Z,10.00
2022-12-23T01:15:00.488Z,10.00
2022-12-23T01:16:01.551Z,10.00
2022-12-23T01:17:00.753Z,10.00
2022-12-23T01:18:00.558Z,10.00
2022-12-23T01:19:00.445Z,10.00
2022-12-23T01:20:00.473Z,10.00
2022-12-23T01:21:01.923Z,10.00
2022-12-23T01:22:00.467Z,10.00
2022-12-23T01:23:00.461Z,10.00
2022-12-23T01:24:00.543Z,10.00
2022-12-23T01:25:00.687Z,10.50
2022-12-23T01:26:02.038Z,10.50
2022-12-23T01:27:00.459Z,10.50
2022-12-23T01:28:00.465Z,10.50
2022-12-23T01:29:00.798Z,10.50
2022-12-23T01:30:00.562Z,10.50
2022-12-23T01:31:01.099Z,10.50
2022-12-23T01:32:00.583Z,10.50
2022-12-23T01:33:00.455Z,10.50
2022-12-23T01:34:00.502Z,10.50
2022-12-23T01:35:00.507Z,10.50
2022-12-23T01:36:01.938Z,10.50
2022-12-23T01:37:00.545Z,10.50
2022-12-23T01:38:00.480Z,10.50
2022-12-23T01:39:00.520Z,10.50
2022-12-23T01:40:00.471Z,10.50
2022-12-23T01:41:00.459Z,10.50
2022-12-23T01:42:00.618Z,10.50
2022-12-23T01:43:00.518Z,10.50
2022-12-23T01:44:00.627Z,10.50
2022-12-23T01:45:03.241Z,10.50
2022-12-23T01:46:00.514Z,10.50
2022-12-23T01:47:01.118Z,10.50
2022-12-23T01:48:00.531Z,10.50
2022-12-23T01:49:00.689Z,10.50
2022-12-23T01:50:00.485Z,10.50
2022-12-23T01:51:05.268Z,10.50
2022-12-23T01:52:00.764Z,10.50
2022-12-23T01:53:07.824Z,10.50
2022-12-23T01:54:00.763Z,10.50
2022-12-23T01:55:00.572Z,11.20
2022-12-23T01:56:01.460Z,11.20
2022-12-23T01:57:00.564Z,11.20
2022-12-23T01:58:07.395Z,11.20
2022-12-23T01:59:04.320Z,11.20
2022-12-23T02:00:00.540Z,11.20
2022-12-23T02:01:00.877Z,11.20
2022-12-23T02:02:00.893Z,11.20
2022-12-23T02:03:00.555Z,11.20
2022-12-23T02:04:02.836Z,11.20
2022-12-23T02:05:00.584Z,11.20
2022-12-23T02:06:00.992Z,11.20
2022-12-23T02:07:00.494Z,11.20
2022-12-23T02:08:00.824Z,11.20
2022-12-23T02:09:00.502Z,11.20
2022-12-23T02:10:01.151Z,11.20
2022-12-23T02:11:00.443Z,11.20
2022-12-23T02:12:10.397Z,11.20
2022-12-23T02:13:10.389Z,11.20
2022-12-23T02:14:10.357Z,11.20
2022-12-23T02:15:07.765Z,11.20
2022-12-23T02:16:08.822Z,11.20
2022-12-23T02:17:08.195Z,11.20
2022-12-23T02:18:07.880Z,11.20
2022-12-23T02:19:07.211Z,11.20
2022-12-23T02:20:10.434Z,11.20
2022-12-23T02:21:03.740Z,11.20
2022-12-23T02:22:09.005Z,11.20
2022-12-23T02:23:10.399Z,11.20
2022-12-23T02:24:10.394Z,11.60
2022-12-23T02:25:01.456Z,11.60
2022-12-23T02:26:10.391Z,11.60
2022-12-23T02:27:00.430Z,11.60
2022-12-23T02:28:10.425Z,11.60
2022-12-23T02:29:01.470Z,11.60
2022-12-23T02:30:03.724Z,11.60
2022-12-23T02:31:04.830Z,11.60
2022-12-23T02:32:10.425Z,11.60
2022-12-23T02:33:10.420Z,11.60
2022-12-23T02:34:06.668Z,11.60
2022-12-23T02:35:05.931Z,11.60
2022-12-23T02:36:10.443Z,11.60
2022-12-23T02:37:07.208Z,11.60
2022-12-23T02:38:01.470Z,11.60
2022-12-23T02:39:06.619Z,11.60
2022-12-23T02:40:00.444Z,11.60
2022-12-23T02:41:10.362Z,11.60
2022-12-23T02:42:06.426Z,11.60
2022-12-23T02:43:05.467Z,11.60
2022-12-23T02:44:07.106Z,11.60
2022-12-23T02:45:06.515Z,11.60
2022-12-23T02:46:06.035Z,11.60
2022-12-23T02:47:04.619Z,11.60
2022-12-23T02:48:10.353Z,11.60
2022-12-23T02:49:10.425Z,11.60
2022-12-23T02:50:05.005Z,11.60
2022-12-23T02:51:01.142Z,11.60
2022-12-23T02:52:04.856Z,11.60
2022-12-23T02:53:06.076Z,11.60
2022-12-23T02:54:03.127Z,11.60
2022-12-23T02:55:04.096Z,10.10
2022-12-23T02:56:01.066Z,10.10
2022-12-23T02:57:02.622Z,10.10
2022-12-23T02:58:03.983Z,10.10
2022-12-23T02:59:10.107Z,10.10
2022-12-23T03:00:01.096Z,10.10
2022-12-23T03:01:00.659Z,10.10
2022-12-23T03:02:00.697Z,10.10
2022-12-23T03:03:00.737Z,10.10
2022-12-23T03:04:00.612Z,10.10
2022-12-23T03:05:01.230Z,10.10
2022-12-23T03:06:01.070Z,10.10
2022-12-23T03:07:07.244Z,10.10
2022-12-23T03:08:03.764Z,10.10
2022-12-23T03:09:00.491Z,10.10
2022-12-23T03:10:00.430Z,10.10
2022-12-23T03:11:09.713Z,10.10
2022-12-23T03:12:09.372Z,10.10
2022-12-23T03:13:01.459Z,10.10
2022-12-23T03:14:10.394Z,10.10
2022-12-23T03:15:00.434Z,10.10
2022-12-23T03:16:01.516Z,10.10
2022-12-23T03:17:10.370Z,10.10
2022-12-23T03:18:10.360Z,10.10
2022-12-23T03:19:06.761Z,10.10
2022-12-23T03:20:10.406Z,10.10
2022-12-23T03:21:10.392Z,10.10
2022-12-23T03:22:01.474Z,10.10
2022-12-23T03:23:05.139Z,10.10
2022-12-23T03:24:10.391Z,10.10
2022-12-23T03:25:00.445Z,12.20
2022-12-23T03:26:06.335Z,12.20
2022-12-23T03:27:04.424Z,12.20
2022-12-23T03:28:06.684Z,12.20
2022-12-23T03:29:10.391Z,12.20
2022-12-23T03:30:01.484Z,12.20
2022-12-23T03:31:02.165Z,12.20
2022-12-23T03:32:01.641Z,12.20
2022-12-23T03:33:03.667Z,12.20
2022-12-23T03:34:05.350Z,12.20
2022-12-23T03:35:01.746Z,12.20
2022-12-23T03:36:04.852Z,12.20
2022-12-23T03:37:02.834Z,12.20
2022-12-23T03:38:01.751Z,12.20
2022-12-23T03:39:02.523Z,12.20
2022-12-23T03:40:03.702Z,12.20
2022-12-23T03:41:04.417Z,12.20
2022-12-23T03:42:03.828Z,12.20
2022-12-23T03:43:03.587Z,12.20
2022-12-23T03:44:03.352Z,12.20
2022-12-23T03:46:03.914Z,12.20
2022-12-23T03:47:00.435Z,12.20
2022-12-23T03:48:04.438Z,12.20
2022-12-23T03:49:02.941Z,12.20
2022-12-23T03:50:10.140Z,12.20
2022-12-23T03:51:03.727Z,12.20
2022-12-23T03:52:13.451Z,12.20
2022-12-23T03:53:04.392Z,12.20
2022-12-23T03:54:04.025Z,12.20
2022-12-23T03:55:03.618Z,12.10
2022-12-23T03:56:03.028Z,12.10
2022-12-23T03:57:01.943Z,12.10
2022-12-23T03:58:08.857Z,12.10
2022-12-23T03:59:05.058Z,12.10
2022-12-23T04:00:00.465Z,12.10
2022-12-23T04:01:10.421Z,12.10
2022-12-23T04:02:10.512Z,12.10
2022-12-23T04:03:08.315Z,12.10
2022-12-23T04:04:00.554Z,12.10
2022-12-23T04:05:07.834Z,12.10
2022-12-23T04:06:01.118Z,12.10
2022-12-23T04:07:06.354Z,12.10
2022-12-23T04:08:00.455Z,12.10
2022-12-23T04:09:01.736Z,12.10
2022-12-23T04:10:00.568Z,12.10
2022-12-23T04:11:01.538Z,12.10
2022-12-23T04:12:00.660Z,12.10
2022-12-23T04:13:00.625Z,12.10
2022-12-23T04:14:00.490Z,12.10
2022-12-23T04:15:00.463Z,12.10
2022-12-23T04:16:00.709Z,12.10
2022-12-23T04:17:00.456Z,12.10
2022-12-23T04:18:00.455Z,12.10
2022-12-23T04:19:00.489Z,12.10
2022-12-23T04:20:00.511Z,12.10
2022-12-23T04:21:00.465Z,12.10
2022-12-23T04:22:00.512Z,12.10
2022-12-23T04:23:00.466Z,12.10
2022-12-23T04:24:00.459Z,12.10
2022-12-23T04:25:00.457Z,11.10
2022-12-23T04:26:00.488Z,11.10
2022-12-23T04:27:00.485Z,11.10
2022-12-23T04:28:00.480Z,11.10
2022-12-23T04:29:00.511Z,11.10
2022-12-23T04:30:00.467Z,11.10
2022-12-23T04:31:00.551Z,11.10
2022-12-23T04:32:00.548Z,11.10
2022-12-23T04:33:00.594Z,11.10
2022-12-23T04:34:00.491Z,11.10
2022-12-23T04:35:00.643Z,11.10
2022-12-23T04:36:00.498Z,11.10
2022-12-23T04:37:00.542Z,11.10
2022-12-23T04:38:00.472Z,11.10
2022-12-23T04:39:00.457Z,11.10
2022-12-23T04:40:00.443Z,11.10
2022-12-23T04:41:00.451Z,11.10
2022-12-23T04:42:00.487Z,11.10
2022-12-23T04:43:00.460Z,11.10
2022-12-23T04:44:00.474Z,11.10
2022-12-23T04:45:00.560Z,11.10
2022-12-23T04:46:00.489Z,11.10
2022-12-23T04:47:00.525Z,11.10
2022-12-23T04:48:00.511Z,11.10
2022-12-23T04:49:00.466Z,11.10
2022-12-23T04:50:00.535Z,11.10
2022-12-23T04:51:01.221Z,11.10
2022-12-23T04:52:00.450Z,11.10
2022-12-23T04:53:00.479Z,11.10
2022-12-23T04:54:00.456Z,11.10
2022-12-23T04:55:00.481Z,13.70
2022-12-23T04:56:00.501Z,13.70
2022-12-23T04:57:00.448Z,13.70
2022-12-23T04:58:00.441Z,13.70
2022-12-23T04:59:00.477Z,13.70
2022-12-23T05:00:00.479Z,13.70
2022-12-23T05:01:01.237Z,13.70
2022-12-23T05:02:01.128Z,13.70
2022-12-23T05:03:00.575Z,13.70
2022-12-23T05:04:00.474Z,13.70
2022-12-23T05:05:00.482Z,13.70
2022-12-23T05:06:00.498Z,13.70
2022-12-23T05:07:00.507Z,13.70
2022-12-23T05:08:03.049Z,13.70
2022-12-23T05:09:00.505Z,13.70
2022-12-23T05:10:00.458Z,13.70
2022-12-23T05:11:00.470Z,13.70
2022-12-23T05:12:00.452Z,13.70
2022-12-23T05:13:00.505Z,13.70
2022-12-23T05:14:00.495Z,13.70
2022-12-23T05:15:00.503Z,13.70
2022-12-23T05:16:00.499Z,13.70
2022-12-23T05:17:05.416Z,13.70
2022-12-23T05:18:00.455Z,13.70
2022-12-23T05:19:00.633Z,13.70
2022-12-23T05:20:00.495Z,13.70
2022-12-23T05:21:00.472Z,13.70
2022-12-23T05:22:00.440Z,13.70
2022-12-23T05:23:00.447Z,13.70
2022-12-23T05:24:00.493Z,13.70
2022-12-23T05:25:00.467Z,12.40
2022-12-23T05:26:00.465Z,12.40
2022-12-23T05:27:00.796Z,12.40
2022-12-23T05:28:00.550Z,12.40
2022-12-23T05:29:00.477Z,12.40
2022-12-23T05:30:00.575Z,12.40
2022-12-23T05:31:01.503Z,12.40
2022-12-23T05:32:00.529Z,12.40
2022-12-23T05:33:00.546Z,12.40
2022-12-23T05:34:05.981Z,12.40
2022-12-23T05:35:00.536Z,12.40
2022-12-23T05:36:00.461Z,12.40
2022-12-23T05:37:00.450Z,12.40
2022-12-23T05:38:00.443Z,12.40
2022-12-23T05:39:00.448Z,12.40
2022-12-23T05:40:00.553Z,12.40
2022-12-23T05:41:00.993Z,12.40
2022-12-23T05:42:00.459Z,12.40
2022-12-23T05:43:00.460Z,12.40
2022-12-23T05:44:00.444Z,12.40
2022-12-23T05:45:00.552Z,12.40
2022-12-23T05:46:00.558Z,12.40
2022-12-23T05:47:00.602Z,12.40
2022-12-23T05:48:00.451Z,12.40
2022-12-23T05:49:00.461Z,12.40
2022-12-23T05:50:00.749Z,12.40
2022-12-23T05:51:00.445Z,12.40
2022-12-23T05:52:00.473Z,12.40
2022-12-23T05:53:00.506Z,12.40
2022-12-23T05:54:00.488Z,12.40
2022-12-23T05:55:00.547Z,10.90
2022-12-23T05:56:04.770Z,10.90
2022-12-23T05:57:00.462Z,10.90
2022-12-23T05:58:00.784Z,10.90
2022-12-23T05:59:00.449Z,10.90
2022-12-23T06:00:00.620Z,10.90
2022-12-23T06:01:01.932Z,10.90
2022-12-23T06:02:00.600Z,10.90
2022-12-23T06:03:00.658Z,10.90
2022-12-23T06:04:00.592Z,10.90
2022-12-23T06:05:00.489Z,10.90
2022-12-23T06:06:00.494Z,10.90
2022-12-23T06:07:00.485Z,10.90
2022-12-23T06:08:00.444Z,10.90
2022-12-23T06:09:00.646Z,10.90
2022-12-23T06:10:00.463Z,10.90
2022-12-23T06:11:02.990Z,10.90
2022-12-23T06:12:00.442Z,10.90
2022-12-23T06:13:00.448Z,10.90
2022-12-23T06:14:00.457Z,10.90
2022-12-23T06:15:00.807Z,10.90
2022-12-23T06:16:00.452Z,10.90
2022-12-23T06:17:00.518Z,10.90
2022-12-23T06:18:00.448Z,10.90
2022-12-23T06:19:00.527Z,10.90
2022-12-23T06:20:00.464Z,10.90
2022-12-23T06:21:00.471Z,10.90
2022-12-23T06:22:00.474Z,10.90
2022-12-23T06:23:00.463Z,10.90
2022-12-23T06:24:00.505Z,10.90
2022-12-23T06:25:00.460Z,12.00
2022-12-23T06:26:00.807Z,12.00
2022-12-23T06:27:00.492Z,12.00
2022-12-23T06:28:00.458Z,12.00
2022-12-23T06:29:00.833Z,12.00
2022-12-23T06:30:00.465Z,12.00
2022-12-23T06:31:00.457Z,12.00
2022-12-23T06:32:00.607Z,12.00
2022-12-23T06:33:00.517Z,12.00
2022-12-23T06:34:00.447Z,12.00
2022-12-23T06:35:00.447Z,12.00
2022-12-23T06:36:00.460Z,12.00
2022-12-23T06:37:00.540Z,12.00
2022-12-23T06:38:00.477Z,12.00
2022-12-23T06:39:00.503Z,12.00
2022-12-23T06:40:00.492Z,12.00
2022-12-23T06:41:00.523Z,12.00
2022-12-23T06:42:00.449Z,12.00
2022-12-23T06:43:00.453Z,12.00
2022-12-23T06:44:00.450Z,12.00
2022-12-23T06:45:00.464Z,12.00
2022-12-23T06:46:00.481Z,12.00
2022-12-23T06:47:00.455Z,12.00
2022-12-23T06:48:00.454Z,12.00
2022-12-23T06:49:00.635Z,12.00
2022-12-23T06:50:00.503Z,12.00
2022-12-23T06:51:00.449Z,12.00
2022-12-23T06:52:00.453Z,12.00
2022-12-23T06:53:00.475Z,12.00
2022-12-23T06:54:00.648Z,12.00
2022-12-23T06:55:00.485Z,13.00
2022-12-23T06:56:00.950Z,13.00
2022-12-23T06:57:00.460Z,13.00
2022-12-23T06:58:00.475Z,13.00
2022-12-23T06:59:00.484Z,13.00
2022-12-23T07:00:00.591Z,13.00
2022-12-23T07:01:00.521Z,13.00
2022-12-23T07:02:00.650Z,13.00
2022-12-23T07:03:00.668Z,13.00
2022-12-23T07:04:00.444Z,13.00
2022-12-23T07:05:00.480Z,13.00
2022-12-23T07:06:00.445Z,13.00
2022-12-23T07:07:00.436Z,13.00
2022-12-23T07:08:00.467Z,13.00
2022-12-23T07:09:00.458Z,13.00
2022-12-23T07:10:00.536Z,13.00
2022-12-23T07:11:01.088Z,13.00
2022-12-23T07:12:01.400Z,13.00
2022-12-23T07:13:00.661Z,13.00
2022-12-23T07:14:00.474Z,13.00
2022-12-23T07:15:00.469Z,13.00
2022-12-23T07:16:04.577Z,13.00
2022-12-23T07:17:00.542Z,13.00
2022-12-23T07:18:00.466Z,13.00
2022-12-23T07:19:00.506Z,13.00
2022-12-23T07:20:00.499Z,13.00
2022-12-23T07:21:00.568Z,13.00
2022-12-23T07:22:00.456Z,13.00
2022-12-23T07:23:00.477Z,13.00
2022-12-23T07:24:00.446Z,13.00
2022-12-23T07:25:00.521Z,14.80
2022-12-23T07:26:00.470Z,14.80
2022-12-23T07:27:00.480Z,14.80
2022-12-23T07:28:00.486Z,14.80
2022-12-23T07:29:00.825Z,14.80
2022-12-23T07:30:00.530Z,14.80
2022-12-23T07:31:00.521Z,14.80
2022-12-23T07:32:01.085Z,14.80
2022-12-23T07:33:00.467Z,14.80
2022-12-23T07:34:00.460Z,14.80
2022-12-23T07:35:00.452Z,14.80
2022-12-23T07:36:00.459Z,14.80
2022-12-23T07:37:00.593Z,14.80
2022-12-23T07:38:00.468Z,14.80
2022-12-23T07:39:00.486Z,14.80
2022-12-23T07:40:06.556Z,14.80
2022-12-23T07:41:00.506Z,14.80
2022-12-23T07:42:25.173Z,14.80
2022-12-23T07:43:00.451Z,14.80
2022-12-23T07:44:00.662Z,14.80
2022-12-23T07:45:00.463Z,14.80
2022-12-23T07:46:08.528Z,14.80
2022-12-23T07:47:00.453Z,14.80
2022-12-23T07:48:00.658Z,14.80
2022-12-23T07:49:00.466Z,14.80
2022-12-23T07:50:00.472Z,14.80
2022-12-23T07:51:01.206Z,14.80
2022-12-23T07:52:00.492Z,14.80
2022-12-23T07:53:00.447Z,14.80
2022-12-23T07:54:00.451Z,14.80
2022-12-23T07:55:00.499Z,13.60
2022-12-23T07:56:00.471Z,13.60
2022-12-23T07:57:00.454Z,13.60
2022-12-23T07:58:00.468Z,13.60
2022-12-23T07:59:00.440Z,13.60
2022-12-23T08:00:00.513Z,13.60
2022-12-23T08:01:01.506Z,13.60
2022-12-23T08:02:00.540Z,13.60
2022-12-23T08:03:00.760Z,13.60
2022-12-23T08:04:00.471Z,13.60
2022-12-23T08:05:00.667Z,13.60
2022-12-23T08:06:01.468Z,13.60
2022-12-23T08:07:00.457Z,13.60
2022-12-23T08:08:00.465Z,13.60
2022-12-23T08:09:00.505Z,13.60
2022-12-23T08:10:00.450Z,13.60
2022-12-23T08:11:03.170Z,13.60
2022-12-23T08:12:00.439Z,13.60
2022-12-23T08:13:00.518Z,13.60
2022-12-23T08:14:00.474Z,13.60
2022-12-23T08:15:00.474Z,13.60
2022-12-23T08:16:00.954Z,13.60
2022-12-23T08:17:00.555Z,13.60
2022-12-23T08:18:00.447Z,13.60
2022-12-23T08:19:00.463Z,13.60
2022-12-23T08:20:00.473Z,13.60
2022-12-23T08:21:01.996Z,13.60
2022-12-23T08:22:00.466Z,13.60
2022-12-23T08:23:00.484Z,13.60
2022-12-23T08:24:00.485Z,13.60
2022-12-23T08:25:00.573Z,9.60
2022-12-23T08:26:04.081Z,9.60
2022-12-23T08:27:00.443Z,9.60
2022-12-23T08:28:00.508Z,9.60
2022-12-23T08:29:00.454Z,9.60
2022-12-23T08:30:00.473Z,9.60
2022-12-23T08:31:02.960Z,9.60
2022-12-23T08:32:00.491Z,9.60
2022-12-23T08:33:00.447Z,9.60
2022-12-23T08:34:00.517Z,9.60
2022-12-23T08:35:00.449Z,9.60
2022-12-23T08:36:00.533Z,9.60
2022-12-23T08:37:00.829Z,9.60
2022-12-23T08:38:00.471Z,9.60
2022-12-23T08:39:01.983Z,9.60
2022-12-23T08:40:00.460Z,9.60
2022-12-23T08:41:00.476Z,9.60
2022-12-23T08:42:00.455Z,9.60
2022-12-23T08:43:01.185Z,9.60
2022-12-23T08:44:00.515Z,9.60
2022-12-23T08:45:00.483Z,9.60
2022-12-23T08:46:00.571Z,9.60
2022-12-23T08:47:00.452Z,9.60
2022-12-23T08:48:00.464Z,9.60
2022-12-23T08:49:00.500Z,9.60
2022-12-23T08:50:00.475Z,9.60
2022-12-23T08:51:04.684Z,9.60
2022-12-23T08:52:00.455Z,9.60
2022-12-23T08:53:00.451Z,9.60
2022-12-23T08:54:01.468Z,9.60
2022-12-23T08:55:00.494Z,7.80
2022-12-23T08:56:01.865Z,7.80
2022-12-23T08:57:00.441Z,7.80
2022-12-23T08:58:00.470Z,7.80
2022-12-23T08:59:00.851Z,7.80
2022-12-23T09:00:00.534Z,7.80
2022-12-23T09:01:02.227Z,7.80
2022-12-23T09:02:00.524Z,7.80
2022-12-23T09:03:00.987Z,7.80
2022-12-23T09:04:01.723Z,7.80
2022-12-23T09:05:00.472Z,7.80
2022-12-23T09:06:06.462Z,7.80
2022-12-23T09:07:00.456Z,7.80
2022-12-23T09:08:00.864Z,7.80
2022-12-23T09:09:00.582Z,7.80
2022-12-23T09:10:00.926Z,7.80
2022-12-23T09:11:00.443Z,7.80
2022-12-23T09:12:00.468Z,7.80
2022-12-23T09:13:00.482Z,7.80
2022-12-23T09:14:00.904Z,7.80
2022-12-23T09:15:00.496Z,7.80
2022-12-23T09:16:00.505Z,7.80
2022-12-23T09:17:00.480Z,7.80
2022-12-23T09:18:00.453Z,7.80
2022-12-23T09:19:00.476Z,7.80
2022-12-23T09:20:00.493Z,7.80
2022-12-23T09:21:01.479Z,7.80
2022-12-23T09:22:00.499Z,7.80
2022-12-23T09:23:01.328Z,7.80
2022-12-23T09:24:00.462Z,7.80
2022-12-23T09:25:04.977Z,7.70
2022-12-23T09:26:00.492Z,7.70
2022-12-23T09:27:00.448Z,7.70
2022-12-23T09:28:00.490Z,7.70
2022-12-23T09:29:00.466Z,7.70
2022-12-23T09:30:00.515Z,7.70
2022-12-23T09:31:07.143Z,7.70
2022-12-23T09:32:00.574Z,7.70
2022-12-23T09:33:00.482Z,7.70
2022-12-23T09:34:00.446Z,7.70
2022-12-23T09:35:00.469Z,7.70
2022-12-23T09:36:01.046Z,7.70
2022-12-23T09:37:01.598Z,7.70
2022-12-23T09:38:00.508Z,7.70
2022-12-23T09:39:00.589Z,7.70
2022-12-23T09:40:00.485Z,7.70
2022-12-23T09:41:02.536Z,7.70
2022-12-23T09:42:03.828Z,7.70
2022-12-23T09:43:10.375Z,7.70
2022-12-23T09:44:01.514Z,7.70
2022-12-23T09:45:10.148Z,7.70
2022-12-23T09:46:10.413Z,7.70
2022-12-23T09:47:03.503Z,7.70
2022-12-23T09:48:00.994Z,7.70
2022-12-23T09:49:03.733Z,7.70
2022-12-23T09:50:03.371Z,7.70
2022-12-23T09:51:01.996Z,7.70
2022-12-23T09:52:01.808Z,7.70
2022-12-23T09:53:04.183Z,7.70
2022-12-23T09:54:16.437Z,7.70
2022-12-23T09:55:00.493Z,7.80
2022-12-23T09:56:07.026Z,7.80
2022-12-23T09:57:01.470Z,7.80
2022-12-23T09:58:04.062Z,7.80
2022-12-23T09:59:10.372Z,7.80
2022-12-23T10:00:01.478Z,7.80
2022-12-23T10:01:01.472Z,7.80
2022-12-23T10:02:03.920Z,7.80
2022-12-23T10:03:00.720Z,7.80
2022-12-23T10:04:10.440Z,7.80
2022-12-23T10:05:01.483Z,7.80
2022-12-23T10:06:00.455Z,7.80
2022-12-23T10:07:08.156Z,7.80
2022-12-23T10:08:09.435Z,7.80
2022-12-23T10:09:02.194Z,7.80
2022-12-23T10:10:05.146Z,7.80
2022-12-23T10:11:03.695Z,7.80
2022-12-23T10:12:01.880Z,7.80
2022-12-23T10:13:02.417Z,7.80
2022-12-23T10:14:10.522Z,7.80
2022-12-23T10:15:01.368Z,7.80
2022-12-23T10:16:03.826Z,7.80
2022-12-23T10:17:06.423Z,7.80
2022-12-23T10:18:10.380Z,7.80
2022-12-23T10:19:00.481Z,7.80
2022-12-23T10:20:02.786Z,7.80
2022-12-23T10:21:03.170Z,7.80
2022-12-23T10:22:03.174Z,7.80
2022-12-23T10:23:00.497Z,7.80
2022-12-23T10:24:05.243Z,7.80
2022-12-23T10:25:02.215Z,5.20
2022-12-23T10:26:02.834Z,5.20
2022-12-23T10:27:03.573Z,5.20
2022-12-23T10:28:00.477Z,5.20
2022-12-23T10:29:15.351Z,5.20
2022-12-23T10:30:33.788Z,5.20
2022-12-23T10:31:31.046Z,5.20
2022-12-23T10:32:03.789Z,5.20
2022-12-23T10:33:00.444Z,5.20
2022-12-23T10:34:07.487Z,5.20
2022-12-23T10:35:06.333Z,5.20
2022-12-23T10:36:06.073Z,5.20
2022-12-23T10:37:10.417Z,5.20
2022-12-23T10:38:00.470Z,5.20
2022-12-23T10:39:03.250Z,5.20
2022-12-23T10:40:00.456Z,5.20
2022-12-23T10:41:10.378Z,5.20
2022-12-23T10:42:10.365Z,5.20
2022-12-23T10:43:10.388Z,5.20
2022-12-23T10:44:10.369Z,5.20
2022-12-23T10:45:00.479Z,5.20
2022-12-23T10:46:08.953Z,5.20
2022-12-23T10:47:10.533Z,5.20
2022-12-23T10:48:14.165Z,5.20
2022-12-23T10:49:06.289Z,5.20
2022-12-23T10:50:10.361Z,5.20
2022-12-23T10:51:02.382Z,5.20
2022-12-23T10:52:04.564Z,5.20
2022-12-23T10:53:03.577Z,5.20
2022-12-23T10:54:03.790Z,5.20
2022-12-23T10:55:00.503Z,3.10
2022-12-23T10:56:02.124Z,3.10
2022-12-23T10:57:01.760Z,3.10
2022-12-23T10:58:05.232Z,3.10
2022-12-23T10:59:00.552Z,3.10
2022-12-23T11:00:00.512Z,3.10
2022-12-23T11:01:03.813Z,3.10
2022-12-23T11:02:10.482Z,3.10
2022-12-23T11:03:07.218Z,3.10
2022-12-23T11:04:03.796Z,3.10
2022-12-23T11:05:00.581Z,3.10
2022-12-23T11:06:01.104Z,3.10
2022-12-23T11:07:41.543Z,3.10
2022-12-23T11:08:01.062Z,3.10
2022-12-23T11:09:01.376Z,3.10
2022-12-23T11:10:02.887Z,3.10
2022-12-23T11:11:00.460Z,3.10
2022-12-23T11:12:01.891Z,3.10
2022-12-23T11:13:00.604Z,3.10
2022-12-23T11:14:00.463Z,3.10
2022-12-23T11:15:00.535Z,3.10
2022-12-23T11:16:10.467Z,3.10
2022-12-23T11:17:00.828Z,3.10
2022-12-23T11:18:02.545Z,3.10
2022-12-23T11:19:02.414Z,3.10
2022-12-23T11:20:10.436Z,3.10
2022-12-23T11:21:02.466Z,3.10
2022-12-23T11:22:00.805Z,3.10
2022-12-23T11:23:01.780Z,3.10
2022-12-23T11:24:06.136Z,3.10
2022-12-23T11:25:10.366Z,3.80
2022-12-23T11:26:10.373Z,3.80
2022-12-23T11:27:02.450Z,3.80
2022-12-23T11:28:10.361Z,3.80
2022-12-23T11:29:04.876Z,3.80
2022-12-23T11:30:00.618Z,3.80
2022-12-23T11:31:03.881Z,3.80
2022-12-23T11:32:01.512Z,3.80
2022-12-23T11:33:00.520Z,3.80
2022-12-23T11:34:01.674Z,3.80
2022-12-23T11:35:00.623Z,3.80
2022-12-23T11:36:06.318Z,3.80
2022-12-23T11:37:05.534Z,3.80
2022-12-23T11:38:00.896Z,3.80
2022-12-23T11:39:03.749Z,3.80
2022-12-23T11:40:00.486Z,3.80
2022-12-23T11:41:01.340Z,3.80
2022-12-23T11:42:04.772Z,3.80
2022-12-23T11:43:03.456Z,3.80
2022-12-23T11:44:04.141Z,3.80
2022-12-23T11:45:00.464Z,3.80
2022-12-23T11:46:10.447Z,3.80
2022-12-23T11:47:10.373Z,3.80
2022-12-23T11:48:02.163Z,3.80
2022-12-23T11:49:10.380Z,3.80
2022-12-23T11:50:01.543Z,3.80
2022-12-23T11:51:01.575Z,3.80
2022-12-23T11:52:10.066Z,3.80
2022-12-23T11:53:03.878Z,3.80
2022-12-23T11:54:01.129Z,3.80
2022-12-23T11:55:01.578Z,3.20
2022-12-23T11:56:03.304Z,3.20
2022-12-23T11:57:03.264Z,3.20
2022-12-23T11:58:01.309Z,3.20
2022-12-23T11:59:04.138Z,3.20
2022-12-23T12:00:01.420Z,3.20
2022-12-23T12:01:05.906Z,3.20
2022-12-23T12:02:02.586Z,3.20
2022-12-23T12:03:01.996Z,3.20
2022-12-23T12:04:03.247Z,3.20
2022-12-23T12:05:04.737Z,3.20
2022-12-23T12:06:02.667Z,3.20
2022-12-23T12:07:02.255Z,3.20
2022-12-23T12:08:02.584Z,3.20
2022-12-23T12:09:02.888Z,3.20
2022-12-23T12:10:00.964Z,3.20
2022-12-23T12:11:04.891Z,3.20
2022-12-23T12:12:17.257Z,3.20
2022-12-23T12:13:01.736Z,3.20
2022-12-23T12:14:02.638Z,3.20
2022-12-23T12:15:00.495Z,3.20
2022-12-23T12:16:07.855Z,3.20
2022-12-23T12:17:10.398Z,3.20
2022-12-23T12:18:01.935Z,3.20
2022-12-23T12:19:05.562Z,3.20
2022-12-23T12:20:10.444Z,3.20
2022-12-23T12:21:04.511Z,3.20
2022-12-23T12:22:04.289Z,3.20
2022-12-23T12:23:05.359Z,3.20
2022-12-23T12:24:18.378Z,3.20
2022-12-23T12:25:08.103Z,3.30
2022-12-23T12:26:03.579Z,3.30
2022-12-23T12:27:03.619Z,3.30
2022-12-23T12:28:02.418Z,3.30
2022-12-23T12:29:01.466Z,3.30
2022-12-23T12:30:08.104Z,3.30
2022-12-23T12:31:04.289Z,3.30
2022-12-23T12:32:00.955Z,3.30
2022-12-23T12:33:04.511Z,3.30
2022-12-23T12:34:04.523Z,3.30
2022-12-23T12:35:04.810Z,3.30
2022-12-23T12:36:08.740Z,3.30
2022-12-23T12:37:09.242Z,3.30
2022-12-23T12:38:04.997Z,3.30
2022-12-23T12:39:00.579Z,3.30
2022-12-23T12:40:06.127Z,3.30
2022-12-23T12:41:01.777Z,3.30
2022-12-23T12:42:05.989Z,3.30
2022-12-23T12:43:10.365Z,3.30
2022-12-23T12:44:00.453Z,3.30
2022-12-23T12:45:09.307Z,3.30
2022-12-23T12:46:03.791Z,3.30
2022-12-23T12:47:15.892Z,3.30
2022-12-23T12:48:10.301Z,3.30
2022-12-23T12:49:08.350Z,3.30
2022-12-23T12:50:05.493Z,3.30
2022-12-23T12:51:03.744Z,3.30
2022-12-23T12:52:11.835Z,3.30
2022-12-23T12:53:05.197Z,3.30
2022-12-23T12:54:10.369Z,3.30
2022-12-23T12:55:05.827Z,2.90
2022-12-23T12:56:11.842Z,2.90
2022-12-23T12:57:00.448Z,2.90
2022-12-23T12:58:00.837Z,2.90
2022-12-23T12:59:00.546Z,2.90
2022-12-23T13:00:06.045Z,2.90
2022-12-23T13:01:05.917Z,2.90
2022-12-23T13:02:10.434Z,2.90
2022-12-23T13:03:03.851Z,2.90